Apiliotis — SYVY — position and weather

sailwx.info

Track history (hours):
 
Tides and Currents Weather Stations Pressure Air Temp Water Temp Dewpoint Dewpoint Depression Visibility Wind Speed Wind Dir Waves Ship Positions

Apiliotis

Last reported at 2014-Oct-31 21:27 UTC. Time now 2014-Nov-01 06:21 UTC.
Position N 38°09' E 024°43'.

Length 79 m; draft 4.5 m.

Type: Ship. MMSI: 240438000.

Date/timePositionNaut miles runAvg speedWind from/ knotsBaromVisibWave heightAir tempDewpointWater temp
2014-Oct-31 21:27N 38°09' E 024°43'  
2014-Oct-24 20:04N 37°52' E 026°25'611.5
2014-Oct-24 19:31N 37°51' E 026°32'7 1.0
2014-Oct-24 12:30N 37°45' E 026°27'16 1.8
2014-Oct-24 03:33N 37°33' E 026°14'1010.6
2014-Oct-24 02:33N 37°28' E 026°02'1110.7
2014-Oct-24 01:33N 37°23' E 025°51'1110.9
2014-Oct-24 00:33N 37°18' E 025°39'1111.4
2014-Oct-23 23:33N 37°12' E 025°27'8 8.3
2014-Oct-23 22:33N 37°08' E 025°17'0 0.0
2014-Oct-23 21:33N 37°08' E 025°17'0 0.0
2014-Oct-23 20:33N 37°08' E 025°17'0 0.0
2014-Oct-23 19:33N 37°08' E 025°17'0 0.0
2014-Oct-23 18:33N 37°08' E 025°17'0 0.0
2014-Oct-23 17:33N 37°08' E 025°17'0 0.0
2014-Oct-23 16:33N 37°08' E 025°17'0 0.0
2014-Oct-23 15:33N 37°08' E 025°17'0 0.0
2014-Oct-23 14:33N 37°08' E 025°17'0 0.0
2014-Oct-23 13:33N 37°08' E 025°17'0 0.0
2014-Oct-23 12:33N 37°08' E 025°17'0 0.0
2014-Oct-23 11:33N 37°08' E 025°17'0 0.0
2014-Oct-23 10:33N 37°08' E 025°17'0 0.0
2014-Oct-23 09:33N 37°08' E 025°17'0 0.0
2014-Oct-23 08:33N 37°08' E 025°17'4 4.3
2014-Oct-23 07:33N 37°10' E 025°13'6 6.0
2014-Oct-23 06:33N 37°05' E 025°09'0 0.0
2014-Oct-23 05:26N 37°05' E 025°09'0 0.0
2014-Oct-23 04:32N 37°05' E 025°09'0 0.0
2014-Oct-23 03:32N 37°05' E 025°09'0 0.0
2014-Oct-23 02:32N 37°05' E 025°09'0 0.0
2014-Oct-23 01:31N 37°05' E 025°09'0 0.0
2014-Oct-23 00:32N 37°05' E 025°09'0 0.0
2014-Oct-22 23:33N 37°05' E 025°09'0 0.0
2014-Oct-22 22:33N 37°05' E 025°09'0 0.0
2014-Oct-22 21:30N 37°05' E 025°09'0 0.0
2014-Oct-22 20:32N 37°05' E 025°09'1 1.4
2014-Oct-22 19:31N 37°05' E 025°07'8 8.5
2014-Oct-22 18:33N 37°11' E 025°15'7 7.3
2014-Oct-22 17:33N 37°06' E 025°22'1 0.6
2014-Oct-22 16:33N 37°06' E 025°21'0 0.0
2014-Oct-22 15:33N 37°06' E 025°21'0 0.0
2014-Oct-22 14:33N 37°06' E 025°21'0 0.0
2014-Oct-22 13:33N 37°06' E 025°21'0 0.4
2014-Oct-22 12:33N 37°06' E 025°22'0 0.4
2014-Oct-22 11:33N 37°06' E 025°21'7 7.4
2014-Oct-22 10:33N 37°13' E 025°20'1110.8
2014-Oct-22 09:31N 37°24' E 025°17'3 3.3
2014-Oct-22 08:32N 37°27' E 025°19'1 0.6
2014-Oct-22 07:33N 37°28' E 025°19'3 3.2
2014-Oct-22 06:33N 37°29' E 025°16'6 6.3
2014-Oct-22 05:33N 37°32' E 025°09'0 0.0
2014-Oct-22 04:33N 37°32' E 025°09'0 0.0
2014-Oct-22 03:33N 37°32' E 025°09'0 0.0
2014-Oct-22 02:33N 37°32' E 025°09'0 0.0
2014-Oct-22 01:33N 37°32' E 025°09'0 0.0
2014-Oct-22 00:33N 37°32' E 025°09'0 0.0
2014-Oct-21 23:33N 37°32' E 025°09'0 0.0
2014-Oct-21 22:33N 37°32' E 025°09'0 0.0
2014-Oct-21 21:33N 37°32' E 025°09'  
Track history (hours):
 
Tides and Currents Weather Stations Pressure Air Temp Water Temp Dewpoint Dewpoint Depression Visibility Wind Speed Wind Dir Waves Ship Positions

Apiliotis

Last reported at 2014-Oct-31 21:27 UTC. Time now 2014-Nov-01 06:21 UTC.
Position N 38°09' E 024°43'.

Length 79 m; draft 4.5 m.

Type: Ship. MMSI: 240438000.

Date/timePositionNaut miles runAvg speedWind from/ knotsBaromVisibWave heightAir tempDewpointWater temp
2014-Oct-31 21:27N 38°09' E 024°43'  
2014-Oct-24 20:04N 37°52' E 026°25'611.5
2014-Oct-24 19:31N 37°51' E 026°32'7 1.0
2014-Oct-24 12:30N 37°45' E 026°27'16 1.8
2014-Oct-24 03:33N 37°33' E 026°14'1010.6
2014-Oct-24 02:33N 37°28' E 026°02'1110.7
2014-Oct-24 01:33N 37°23' E 025°51'1110.9
2014-Oct-24 00:33N 37°18' E 025°39'1111.4
2014-Oct-23 23:33N 37°12' E 025°27'8 8.3
2014-Oct-23 22:33N 37°08' E 025°17'0 0.0
2014-Oct-23 21:33N 37°08' E 025°17'0 0.0
2014-Oct-23 20:33N 37°08' E 025°17'0 0.0
2014-Oct-23 19:33N 37°08' E 025°17'0 0.0
2014-Oct-23 18:33N 37°08' E 025°17'0 0.0
2014-Oct-23 17:33N 37°08' E 025°17'0 0.0
2014-Oct-23 16:33N 37°08' E 025°17'0 0.0
2014-Oct-23 15:33N 37°08' E 025°17'0 0.0
2014-Oct-23 14:33N 37°08' E 025°17'0 0.0
2014-Oct-23 13:33N 37°08' E 025°17'0 0.0
2014-Oct-23 12:33N 37°08' E 025°17'0 0.0
2014-Oct-23 11:33N 37°08' E 025°17'0 0.0
2014-Oct-23 10:33N 37°08' E 025°17'0 0.0
2014-Oct-23 09:33N 37°08' E 025°17'0 0.0
2014-Oct-23 08:33N 37°08' E 025°17'4 4.3
2014-Oct-23 07:33N 37°10' E 025°13'6 6.0
2014-Oct-23 06:33N 37°05' E 025°09'0 0.0
2014-Oct-23 05:26N 37°05' E 025°09'0 0.0
2014-Oct-23 04:32N 37°05' E 025°09'0 0.0
2014-Oct-23 03:32N 37°05' E 025°09'0 0.0
2014-Oct-23 02:32N 37°05' E 025°09'0 0.0
2014-Oct-23 01:31N 37°05' E 025°09'0 0.0
2014-Oct-23 00:32N 37°05' E 025°09'0 0.0
2014-Oct-22 23:33N 37°05' E 025°09'0 0.0
2014-Oct-22 22:33N 37°05' E 025°09'0 0.0
2014-Oct-22 21:30N 37°05' E 025°09'0 0.0
2014-Oct-22 20:32N 37°05' E 025°09'1 1.4
2014-Oct-22 19:31N 37°05' E 025°07'8 8.5
2014-Oct-22 18:33N 37°11' E 025°15'7 7.3
2014-Oct-22 17:33N 37°06' E 025°22'1 0.6
2014-Oct-22 16:33N 37°06' E 025°21'0 0.0
2014-Oct-22 15:33N 37°06' E 025°21'0 0.0
2014-Oct-22 14:33N 37°06' E 025°21'0 0.0
2014-Oct-22 13:33N 37°06' E 025°21'0 0.4
2014-Oct-22 12:33N 37°06' E 025°22'0 0.4
2014-Oct-22 11:33N 37°06' E 025°21'7 7.4
2014-Oct-22 10:33N 37°13' E 025°20'1110.8
2014-Oct-22 09:31N 37°24' E 025°17'3 3.3
2014-Oct-22 08:32N 37°27' E 025°19'1 0.6
2014-Oct-22 07:33N 37°28' E 025°19'3 3.2
2014-Oct-22 06:33N 37°29' E 025°16'6 6.3
2014-Oct-22 05:33N 37°32' E 025°09'0 0.0
2014-Oct-22 04:33N 37°32' E 025°09'0 0.0
2014-Oct-22 03:33N 37°32' E 025°09'0 0.0
2014-Oct-22 02:33N 37°32' E 025°09'0 0.0
2014-Oct-22 01:33N 37°32' E 025°09'0 0.0
2014-Oct-22 00:33N 37°32' E 025°09'0 0.0
2014-Oct-21 23:33N 37°32' E 025°09'0 0.0
2014-Oct-21 22:33N 37°32' E 025°09'0 0.0
2014-Oct-21 21:33N 37°32' E 025°09'  

Dump ship's entire track history